Time;durP1;ratioP1;P1;durP2;ratioP2;P2;SDS_P1;SDS_P2;PMS_P1;PMS_P2;Temp;Humidity;BMP_temperature;BMP_pressure;BME280_temperature;BME280_humidity;BME280_pressure;Samples;Min_cycle;Max_cycle;Signal;HPM_P1;HPM_P2
2022/05/22 00:02:25;;;;;;;8.07;3.10;;;486.50;2380.80;;;;;;5051056;28;20032;-78
2022/05/22 00:04:51;;;;;;;15.27;3.58;;;486.50;2380.80;;;;;;5050574;28;20052;-78
2022/05/22 00:07:17;;;;;;;7.22;3.28;;;486.60;2380.80;;;;;;5050730;28;20029;-78
2022/05/22 00:09:43;;;;;;;5.93;3.35;;;486.70;2380.80;;;;;;5051706;28;20025;-78
2022/05/22 00:12:10;;;;;;;7.15;4.40;;;486.70;2380.80;;;;;;5050737;28;20472;-78
2022/05/22 00:14:36;;;;;;;11.05;3.88;;;486.70;2380.80;;;;;;5050529;28;20392;-77
2022/05/22 00:17:02;;;;;;;7.40;3.13;;;486.70;2380.80;;;;;;5050613;28;20025;-78
2022/05/22 00:19:33;;;;;;;4.47;3.63;;;486.80;2380.80;;;;;;5050707;28;20448;-78
2022/05/22 00:22:00;;;;;;;8.45;3.17;;;486.70;2380.80;;;;;;5051715;28;20100;-78
2022/05/22 00:24:29;;;;;;;9.35;3.55;;;486.80;2380.80;;;;;;5050617;28;20025;-78
2022/05/22 00:26:56;;;;;;;8.07;3.22;;;486.80;2380.80;;;;;;5050695;28;20025;-78
2022/05/22 00:29:22;;;;;;;8.25;3.10;;;486.90;2380.80;;;;;;5050508;28;20608;-77
2022/05/22 00:31:48;;;;;;;9.00;3.55;;;486.90;2380.80;;;;;;5050109;28;20072;-77
2022/05/22 00:34:14;;;;;;;10.18;3.90;;;486.90;2380.80;;;;;;5052014;28;20032;-78
2022/05/22 00:36:40;;;;;;;6.20;3.10;;;487.00;2380.80;;;;;;5050547;28;20036;-79
2022/05/22 00:39:06;;;;;;;8.38;3.95;;;486.90;2380.80;;;;;;5050422;28;20029;-80
2022/05/22 00:41:33;;;;;;;11.43;4.95;;;486.80;2380.80;;;;;;5050357;28;20029;-77
2022/05/22 00:44:00;;;;;;;9.07;3.90;;;486.70;2380.80;;;;;;5050543;28;20037;-79
2022/05/22 00:46:27;;;;;;;10.38;4.00;;;486.70;2380.80;;;;;;5053840;28;20099;-78
2022/05/22 00:49:13;;;;;;;12.20;4.28;;;486.70;2380.80;;;;;;5053985;28;20440;-77
2022/05/22 00:51:51;;;;;;;11.38;5.60;;;486.70;2380.80;;;;;;5053556;28;20060;-78
2022/05/22 00:54:27;;;;;;;12.90;6.57;;;486.50;2380.80;;;;;;5053322;28;20102;-77
2022/05/22 00:57:06;;;;;;;14.15;5.97;;;486.50;2380.80;;;;;;5053741;28;20025;-78
2022/05/22 00:59:46;;;;;;;10.05;4.75;;;486.50;2380.80;;;;;;5053811;28;20017;-78
2022/05/22 01:02:15;;;;;;;19.25;9.85;;;486.40;2380.80;;;;;;5053952;28;20388;-78
2022/05/22 01:04:42;;;;;;;19.17;11.23;;;486.40;2380.80;;;;;;5053732;28;20029;-77
2022/05/22 01:07:08;;;;;;;14.43;6.78;;;486.40;2380.80;;;;;;5053662;28;20157;-78
2022/05/22 01:09:35;;;;;;;10.57;4.50;;;461.70;2380.80;;;;;;5054485;28;20031;-79
2022/05/22 01:12:08;;;;;;;8.48;3.70;;;461.70;2380.80;;;;;;5053778;28;20419;-77
2022/05/22 01:14:35;;;;;;;7.82;4.35;;;486.40;2380.80;;;;;;5053652;28;20079;-77
2022/05/22 01:17:07;;;;;;;7.25;4.13;;;461.60;2380.80;;;;;;5053558;28;21154;-77
2022/05/22 01:19:33;;;;;;;8.20;4.15;;;461.70;2380.80;;;;;;5053632;28;20472;-77
2022/05/22 01:22:00;;;;;;;8.00;3.72;;;461.70;2380.80;;;;;;5053500;28;20036;-78
2022/05/22 01:24:27;;;;;;;8.05;3.58;;;461.70;2380.80;;;;;;5053495;28;20025;-79
2022/05/22 01:26:56;;;;;;;6.15;3.95;;;486.40;2380.80;;;;;;5053251;28;20071;-80
2022/05/22 01:29:22;;;;;;;8.90;3.55;;;486.40;2380.80;;;;;;5053098;28;20053;-78
2022/05/22 01:31:48;;;;;;;6.93;3.40;;;486.50;2380.80;;;;;;5053313;28;20043;-78
2022/05/22 01:34:14;;;;;;;10.77;3.70;;;486.50;2380.80;;;;;;5053267;28;20385;-80
2022/05/22 01:36:40;;;;;;;8.95;3.72;;;486.50;2380.80;;;;;;5053361;28;20036;-79
2022/05/22 01:39:07;;;;;;;7.43;3.03;;;486.40;2380.80;;;;;;5053362;28;20464;-78
2022/05/22 01:41:33;;;;;;;5.07;3.15;;;486.40;2380.80;;;;;;5053222;28;20025;-78
2022/05/22 01:43:59;;;;;;;6.53;3.80;;;486.40;2380.80;;;;;;5053278;28;20051;-77
2022/05/22 01:46:25;;;;;;;9.38;3.40;;;486.50;2380.80;;;;;;5053144;28;20032;-78
2022/05/22 01:48:51;;;;;;;6.07;3.30;;;486.40;2380.80;;;;;;5053315;28;20025;-78
2022/05/22 01:51:17;;;;;;;8.00;3.20;;;486.50;2380.80;;;;;;5052838;28;20067;-78
2022/05/22 01:53:42;;;;;;;9.32;3.75;;;486.50;2380.80;;;;;;5052986;28;20033;-77
2022/05/22 01:56:08;;;;;;;5.50;3.35;;;486.40;2380.80;;;;;;5052769;28;20022;-78
2022/05/22 01:58:34;;;;;;;8.25;4.07;;;486.40;2380.80;;;;;;5051992;28;20036;-79
2022/05/22 02:01:00;;;;;;;7.32;3.45;;;461.70;2380.80;;;;;;5052887;28;20111;-79
2022/05/22 02:03:26;;;;;;;6.20;3.45;;;461.70;2380.80;;;;;;5052705;28;20594;-78
2022/05/22 02:05:52;;;;;;;5.20;3.13;;;461.60;2380.80;;;;;;5052577;28;20029;-77
2022/05/22 02:08:22;;;;;;;9.23;3.47;;;461.50;2380.80;;;;;;5052494;28;20040;-78
2022/05/22 02:10:54;;;;;;;7.00;3.50;;;461.50;2380.80;;;;;;5052591;28;20167;-77
2022/05/22 02:13:22;;;;;;;5.28;3.83;;;461.60;2380.80;;;;;;5058094;28;20036;-77
2022/05/22 02:15:49;;;;;;;7.38;2.80;;;461.60;2380.80;;;;;;5056607;28;20024;-77
2022/05/22 02:18:15;;;;;;;8.98;2.97;;;461.60;2380.80;;;;;;5057528;28;20052;-78
2022/05/22 02:20:41;;;;;;;12.35;3.28;;;461.70;2380.80;;;;;;5055190;28;20464;-76
2022/05/22 02:23:07;;;;;;;21.65;3.50;;;486.40;2380.80;;;;;;5054208;28;20029;-76
2022/05/22 02:25:35;;;;;;;6.82;3.45;;;486.40;2380.80;;;;;;5052649;28;20075;-77
2022/05/22 02:28:02;;;;;;;9.90;3.20;;;486.50;2380.80;;;;;;5052423;28;20510;-77
2022/05/22 02:30:32;;;;;;;6.32;2.95;;;486.60;2380.80;;;;;;5052706;28;20041;-76
2022/05/22 02:32:57;;;;;;;7.30;3.88;;;486.50;2380.80;;;;;;5052359;28;20025;-77
2022/05/22 02:35:23;;;;;;;8.02;5.07;;;486.70;2380.80;;;;;;5053430;28;20150;-77
2022/05/22 02:37:54;;;;;;;7.05;3.22;;;486.70;2380.80;;;;;;5051952;28;20021;-77
2022/05/22 02:40:23;;;;;;;5.55;2.95;;;486.70;2380.80;;;;;;5051974;28;20074;-78
2022/05/22 02:42:51;;;;;;;9.38;3.33;;;486.70;2380.80;;;;;;5052068;28;20483;-78
2022/05/22 02:45:19;;;;;;;7.75;3.83;;;486.70;2380.80;;;;;;5051961;28;20025;-77
2022/05/22 02:47:45;;;;;;;11.32;3.45;;;486.80;2380.80;;;;;;5051841;28;20494;-77
2022/05/22 02:50:13;;;;;;;7.68;3.20;;;486.80;2380.80;;;;;;5051749;28;20036;-77
2022/05/22 02:52:39;;;;;;;5.88;3.65;;;486.90;2380.80;;;;;;5051597;28;20025;-78
2022/05/22 02:55:06;;;;;;;9.10;4.45;;;487.00;2380.80;;;;;;5051582;28;20052;-79
2022/05/22 02:57:38;;;;;;;14.32;4.60;;;487.10;2380.80;;;;;;5051321;28;20029;-78
2022/05/22 03:00:11;;;;;;;9.20;4.13;;;486.90;2380.80;;;;;;5051520;28;20036;-78
2022/05/22 03:02:37;;;;;;;9.57;5.22;;;486.80;2380.80;;;;;;5050628;28;20025;-79
2022/05/22 03:05:03;;;;;;;11.35;4.55;;;486.60;2380.80;;;;;;5051808;28;20036;-80
2022/05/22 03:07:29;;;;;;;8.15;5.07;;;486.50;2380.80;;;;;;5051801;28;20433;-78
2022/05/22 03:09:55;;;;;;;7.57;4.03;;;486.50;2380.80;;;;;;5053015;28;20155;-78
2022/05/22 03:12:23;;;;;;;11.70;4.55;;;486.50;2380.80;;;;;;5053570;28;20396;-77
2022/05/22 03:14:52;;;;;;;10.32;5.03;;;486.50;2380.80;;;;;;5062291;28;20045;-78
2022/05/22 03:17:19;;;;;;;5.97;3.83;;;486.60;2380.80;;;;;;5062022;28;20025;-79
2022/05/22 03:19:44;;;;;;;6.65;4.57;;;486.70;2380.80;;;;;;5058606;28;20024;-79
2022/05/22 03:22:11;;;;;;;7.40;4.63;;;486.80;2380.80;;;;;;5051143;28;20021;-77
2022/05/22 03:24:38;;;;;;;13.43;5.55;;;486.80;2380.80;;;;;;5051272;28;20021;-76
2022/05/22 03:27:06;;;;;;;6.75;3.85;;;486.80;2380.80;;;;;;5050844;28;20024;-77
2022/05/22 03:29:32;;;;;;;8.05;3.85;;;486.70;2380.80;;;;;;5050933;28;20139;-76
2022/05/22 03:31:58;;;;;;;16.05;4.85;;;486.60;2380.80;;;;;;5050825;28;20040;-77
2022/05/22 03:34:24;;;;;;;9.55;4.57;;;486.60;2380.80;;;;;;5050937;28;20025;-78
2022/05/22 03:36:50;;;;;;;4.40;3.15;;;486.70;2380.80;;;;;;5050537;28;20025;-76
2022/05/22 03:39:17;;;;;;;6.43;3.72;;;486.70;2380.80;;;;;;5051722;28;20055;-76
2022/05/22 03:41:43;;;;;;;7.53;3.78;;;486.80;2380.80;;;;;;5052377;28;20126;-78
2022/05/22 03:44:09;;;;;;;8.57;4.00;;;486.80;2380.80;;;;;;5050806;28;20056;-77
2022/05/22 03:46:34;;;;;;;10.38;5.45;;;487.00;2380.80;;;;;;5050823;28;20112;-76
2022/05/22 03:49:01;;;;;;;9.93;5.22;;;486.80;2380.80;;;;;;5051814;28;20029;-77
2022/05/22 03:51:27;;;;;;;11.90;5.55;;;486.90;2380.80;;;;;;5052340;28;20044;-77
2022/05/22 03:53:53;;;;;;;5.72;3.63;;;486.90;2380.80;;;;;;5050907;28;20111;-77
2022/05/22 03:56:20;;;;;;;11.23;4.47;;;487.00;2380.80;;;;;;5051341;28;20043;-78
2022/05/22 03:58:46;;;;;;;4.68;3.75;;;487.00;2380.80;;;;;;5052404;28;20075;-76
2022/05/22 04:01:13;;;;;;;8.55;3.40;;;487.10;2380.80;;;;;;5051372;28;20025;-78
2022/05/22 04:03:38;;;;;;;7.38;4.07;;;487.10;2380.80;;;;;;5051139;28;20025;-77
2022/05/22 04:06:06;;;;;;;9.50;4.95;;;487.10;2380.80;;;;;;5051547;28;20051;-76
2022/05/22 04:08:33;;;;;;;8.82;4.45;;;487.10;2380.80;;;;;;5052492;28;20028;-77
2022/05/22 04:11:06;;;;;;;12.50;4.50;;;487.10;2380.80;;;;;;5050934;28;20078;-76
2022/05/22 04:13:32;;;;;;;10.90;4.13;;;487.20;2380.80;;;;;;5051072;28;20029;-77
2022/05/22 04:15:58;;;;;;;9.20;4.50;;;487.20;2380.80;;;;;;5050314;28;20380;-77
2022/05/22 04:18:23;;;;;;;8.18;4.47;;;512.00;2380.80;;;;;;5050501;28;20079;-79
2022/05/22 04:20:49;;;;;;;9.15;5.40;;;512.00;2380.80;;;;;;5051873;28;20159;-78
2022/05/22 04:26:00;;;;;;;8.63;4.03;;;512.10;2380.80;;;;;;5058852;28;20074;-77
2022/05/22 04:28:27;;;;;;;15.00;5.43;;;487.20;2380.80;;;;;;5056986;28;20049;-77
2022/05/22 04:30:53;;;;;;;14.30;4.90;;;512.00;2380.80;;;;;;5057905;28;20029;-77
2022/05/22 04:33:19;;;;;;;9.60;4.45;;;512.00;2380.80;;;;;;5054820;28;20044;-77
2022/05/22 04:35:44;;;;;;;11.63;4.57;;;512.00;2380.80;;;;;;5054865;28;20025;-78
2022/05/22 04:38:11;;;;;;;15.90;4.40;;;512.00;2380.80;;;;;;5055666;28;20096;-77
2022/05/22 04:40:41;;;;;;;10.05;4.10;;;487.30;2380.80;;;;;;5054225;28;20044;-79
2022/05/22 04:43:09;;;;;;;13.95;5.03;;;512.00;2380.80;;;;;;5055642;28;20152;-77
2022/05/22 04:45:39;;;;;;;11.75;4.55;;;512.00;2380.80;;;;;;5055267;28;20083;-76
2022/05/22 04:48:06;;;;;;;7.22;3.90;;;512.00;2380.80;;;;;;5053927;28;20388;-79
2022/05/22 04:50:32;;;;;;;9.32;3.88;;;512.00;2380.80;;;;;;5053803;28;20051;-77
2022/05/22 04:52:59;;;;;;;8.80;4.72;;;512.10;2380.80;;;;;;5053898;28;20029;-76
2022/05/22 04:55:25;;;;;;;9.82;5.03;;;512.10;2380.80;;;;;;5053691;28;20130;-77
2022/05/22 04:57:50;;;;;;;7.88;4.20;;;512.10;2380.80;;;;;;5053779;28;20457;-78
2022/05/22 05:00:17;;;;;;;17.25;4.18;;;512.30;2380.80;;;;;;5053673;28;20120;-78
2022/05/22 05:02:42;;;;;;;10.63;5.40;;;512.00;2380.80;;;;;;5053717;28;20052;-79
2022/05/22 05:05:11;;;;;;;9.10;5.72;;;512.10;2380.80;;;;;;5053580;28;20031;-78
2022/05/22 05:07:41;;;;;;;9.82;4.90;;;512.10;2380.80;;;;;;5053368;28;20061;-78
2022/05/22 05:10:08;;;;;;;8.35;4.85;;;512.00;2380.80;;;;;;5053430;28;20548;-79
2022/05/22 05:12:38;;;;;;;10.98;5.82;;;512.00;2380.80;;;;;;5054725;28;20079;-77
2022/05/22 05:15:06;;;;;;;15.38;6.68;;;512.00;2380.80;;;;;;5053390;28;20539;-77
2022/05/22 05:17:32;;;;;;;10.95;4.28;;;512.30;2380.80;;;;;;5053286;28;20055;-77
2022/05/22 05:19:59;;;;;;;11.70;6.32;;;512.50;2380.80;;;;;;5054556;28;20027;-75
2022/05/22 05:22:25;;;;;;;8.20;4.78;;;512.50;2380.80;;;;;;5053056;28;20021;-77
2022/05/22 05:24:51;;;;;;;11.05;6.53;;;512.50;2380.80;;;;;;5053066;28;20502;-77
2022/05/22 05:27:16;;;;;;;9.60;6.07;;;512.40;2380.80;;;;;;5052777;28;20025;-76
2022/05/22 05:29:42;;;;;;;12.35;5.32;;;512.70;2380.80;;;;;;5052971;28;20068;-75
2022/05/22 05:32:08;;;;;;;9.38;5.45;;;512.70;2380.80;;;;;;5051510;28;20392;-76
2022/05/22 05:34:34;;;;;;;14.32;4.13;;;512.50;2380.80;;;;;;5052854;28;20388;-75
2022/05/22 05:37:00;;;;;;;14.68;5.05;;;512.40;2380.80;;;;;;5054122;28;20040;-78
2022/05/22 05:39:27;;;;;;;7.45;4.18;;;512.40;2380.80;;;;;;5052731;28;20033;-77
2022/05/22 05:41:56;;;;;;;8.75;4.82;;;512.30;2380.80;;;;;;5054123;28;20104;-77
2022/05/22 05:44:23;;;;;;;12.27;6.50;;;512.30;2380.80;;;;;;5052853;28;20040;-78
2022/05/22 05:46:49;;;;;;;13.20;6.22;;;512.40;2380.80;;;;;;5052580;28;20025;-76
2022/05/22 05:49:14;;;;;;;7.60;5.63;;;512.50;2380.80;;;;;;5052472;28;20155;-75
2022/05/22 05:51:41;;;;;;;15.20;7.38;;;512.30;2380.80;;;;;;5052323;28;20063;-77
2022/05/22 05:54:06;;;;;;;16.95;9.13;;;512.30;2380.80;;;;;;5052546;28;20079;-77
2022/05/22 05:56:36;;;;;;;14.10;7.53;;;512.40;2380.80;;;;;;5052422;28;20033;-76
2022/05/22 05:59:01;;;;;;;6.30;4.25;;;512.30;2380.80;;;;;;5052272;28;20385;-77
2022/05/22 06:01:27;;;;;;;9.23;4.70;;;512.30;2380.80;;;;;;5052296;28;20120;-78
2022/05/22 06:03:53;;;;;;;17.13;5.10;;;512.40;2380.80;;;;;;5053593;28;20025;-77
2022/05/22 06:06:19;;;;;;;15.70;5.88;;;512.50;2380.80;;;;;;5052204;28;20115;-76
2022/05/22 06:08:45;;;;;;;9.27;4.07;;;512.70;2380.80;;;;;;5053190;28;20064;-77
2022/05/22 06:11:11;;;;;;;7.45;4.20;;;512.90;2380.80;;;;;;5053567;28;20476;-75
2022/05/22 06:13:37;;;;;;;11.48;3.92;;;512.80;2380.80;;;;;;5051870;28;20021;-77
2022/05/22 06:16:04;;;;;;;13.20;4.05;;;512.90;2380.80;;;;;;5052006;28;20025;-76
2022/05/22 06:18:30;;;;;;;7.00;3.63;;;537.60;2406.40;;;;;;5053476;28;20387;-76
2022/05/22 06:20:56;;;;;;;18.40;4.75;;;;;;;;;;5051679;28;20590;-78
2022/05/22 06:23:22;;;;;;;8.57;3.92;;;538.40;2406.40;;;;;;5051712;28;20028;-77
2022/05/22 06:25:47;;;;;;;11.05;6.22;;;538.40;2406.40;;;;;;5051812;28;20463;-75
2022/05/22 06:28:17;;;;;;;8.05;4.72;;;563.30;2432.00;;;;;;5051475;28;20119;-78
2022/05/22 06:30:43;;;;;;;17.33;9.00;;;563.30;2432.00;;;;;;5051652;28;20068;-77
2022/05/22 06:33:11;;;;;;;10.38;5.50;;;563.70;2432.00;;;;;;5051686;28;20094;-76
2022/05/22 06:35:41;;;;;;;7.25;3.38;;;563.90;2432.00;;;;;;5053178;28;20479;-78
2022/05/22 06:40:55;;;;;;;6.35;3.63;;;563.40;2432.00;;;;;;5052666;28;20032;-77
2022/05/22 06:43:21;;;;;;;12.85;3.65;;;563.20;2432.00;;;;;;5052324;28;20025;-77
2022/05/22 06:45:50;;;;;;;4.93;3.67;;;538.50;2406.40;;;;;;5052359;28;20071;-76
2022/05/22 06:48:17;;;;;;;12.00;6.22;;;538.10;2406.40;;;;;;5052417;28;20027;-76
2022/05/22 06:50:43;;;;;;;13.82;5.63;;;537.80;2406.40;;;;;;5051281;28;20124;-77
2022/05/22 06:53:09;;;;;;;8.95;6.00;;;512.80;2380.80;;;;;;5052580;28;20115;-75
2022/05/22 06:55:34;;;;;;;7.95;4.40;;;512.70;2380.80;;;;;;5052219;28;20029;-77
2022/05/22 06:58:00;;;;;;;10.88;4.05;;;512.90;2380.80;;;;;;5051190;28;20025;-77
2022/05/22 07:00:27;;;;;;;8.75;3.47;;;512.90;2380.80;;;;;;5051067;28;20025;-78
2022/05/22 07:02:53;;;;;;;5.10;3.75;;;512.60;2380.80;;;;;;5052152;28;20369;-76
2022/05/22 07:05:20;;;;;;;7.10;3.35;;;512.40;2380.80;;;;;;5052560;28;20031;-77
2022/05/22 07:07:46;;;;;;;9.90;4.30;;;512.40;2380.80;;;;;;5052384;28;20422;-78
2022/05/22 07:10:12;;;;;;;14.48;5.43;;;512.50;2380.80;;;;;;5051035;28;20037;-78
2022/05/22 07:12:38;;;;;;;7.28;4.35;;;512.50;2380.80;;;;;;5052232;28;20478;-76
2022/05/22 07:15:04;;;;;;;10.43;4.70;;;512.50;2380.80;;;;;;5052207;28;20482;-78
2022/05/22 07:17:30;;;;;;;10.80;4.28;;;512.60;2380.80;;;;;;5050559;28;20048;-77
2022/05/22 07:19:56;;;;;;;7.30;4.85;;;512.60;2380.80;;;;;;5051972;28;20067;-77
2022/05/22 07:22:23;;;;;;;10.50;4.88;;;512.50;2380.80;;;;;;5051716;28;20039;-78
2022/05/22 07:24:49;;;;;;;7.45;5.05;;;512.50;2380.80;;;;;;5050063;28;20056;-77
2022/05/22 07:27:15;;;;;;;7.38;5.38;;;512.50;2380.80;;;;;;5050572;28;20073;-78
2022/05/22 07:29:41;;;;;;;8.77;4.68;;;512.60;2380.80;;;;;;5049792;28;20029;-78
2022/05/22 07:32:08;;;;;;;11.00;5.28;;;512.50;2380.80;;;;;;5044318;28;20065;-78
2022/05/22 07:34:35;;;;;;;7.72;5.45;;;512.40;2380.80;;;;;;5031875;28;20144;-78
2022/05/22 07:37:04;;;;;;;8.07;5.22;;;512.80;2380.80;;;;;;5032477;28;20022;-80
2022/05/22 07:39:30;;;;;;;10.57;5.97;;;512.80;2380.80;;;;;;5032075;28;20021;-78
2022/05/22 07:41:55;;;;;;;6.63;5.25;;;512.90;2380.80;;;;;;5031768;28;20022;-77
2022/05/22 07:44:22;;;;;;;10.93;6.38;;;537.60;2406.40;;;;;;5032250;28;20072;-79
2022/05/22 07:46:48;;;;;;;9.38;6.28;;;512.90;2380.80;;;;;;5032102;28;20025;-78
2022/05/22 07:52:08;;;;;;;10.13;6.30;;;512.90;2380.80;;;;;;5020356;28;20050;-79
2022/05/22 07:54:36;;;;;;;12.20;6.10;;;537.60;2406.40;;;;;;5031479;28;20026;-78
2022/05/22 07:57:03;;;;;;;11.07;6.85;;;537.60;2406.40;;;;;;5031668;28;20061;-78
2022/05/22 07:59:29;;;;;;;7.60;5.63;;;512.90;2380.80;;;;;;5030086;28;20044;-77
2022/05/22 08:01:55;;;;;;;11.15;5.85;;;512.70;2380.80;;;;;;5030284;28;20029;-76
2022/05/22 08:04:21;;;;;;;10.35;6.60;;;512.80;2380.80;;;;;;5031507;28;20033;-77
2022/05/22 08:06:46;;;;;;;8.48;6.13;;;537.60;2406.40;;;;;;5030400;28;20030;-77
2022/05/22 08:09:12;;;;;;;10.38;6.70;;;537.60;2406.40;;;;;;5031728;28;20025;-78
2022/05/22 08:11:38;;;;;;;12.80;7.28;;;538.00;2406.40;;;;;;5031201;28;20033;-77
2022/05/22 08:14:04;;;;;;;11.15;6.28;;;538.20;2406.40;;;;;;5030477;28;20026;-77
2022/05/22 08:16:30;;;;;;;9.32;6.10;;;538.30;2406.40;;;;;;5031780;28;20022;-78
2022/05/22 08:18:55;;;;;;;11.38;5.88;;;538.10;2406.40;;;;;;5049959;28;20029;-76
2022/05/22 08:21:22;;;;;;;8.77;6.47;;;538.20;2406.40;;;;;;5049359;28;20040;-76
2022/05/22 08:23:49;;;;;;;10.98;6.85;;;538.20;2406.40;;;;;;5050450;28;20013;-78
2022/05/22 08:26:14;;;;;;;14.77;6.55;;;538.30;2406.40;;;;;;5049157;28;20116;-76
2022/05/22 08:28:40;;;;;;;9.00;4.70;;;538.40;2406.40;;;;;;5051480;28;20564;-76
2022/05/22 08:31:06;;;;;;;14.65;6.45;;;538.30;2406.40;;;;;;5062525;28;20041;-75
2022/05/22 08:33:34;;;;;;;10.93;5.45;;;538.40;2406.40;;;;;;5061954;28;20025;-76
2022/05/22 08:36:00;;;;;;;16.52;6.10;;;563.30;2432.00;;;;;;5062521;28;20051;-76
2022/05/22 08:38:25;;;;;;;10.98;5.72;;;563.20;2432.00;;;;;;5055402;28;20029;-77
2022/05/22 08:41:08;;;;;;;11.88;6.72;;;563.20;2432.00;;;;;;5052103;28;20079;-76
2022/05/22 08:43:35;;;;;;;9.13;4.93;;;563.20;2432.00;;;;;;5051523;28;20033;-76
2022/05/22 08:46:13;;;;;;;11.48;6.13;;;538.50;2406.40;;;;;;5050181;28;20025;-76
2022/05/22 08:48:53;;;;;;;10.20;6.18;;;538.00;2406.40;;;;;;5050268;28;20057;-75
2022/05/22 08:51:34;;;;;;;12.30;6.50;;;538.40;2406.40;;;;;;5048005;28;20033;-76
2022/05/22 08:54:29;;;;;;;11.38;6.57;;;538.30;2406.40;;;;;;5049384;28;20064;-76
2022/05/22 08:59:45;;;;;;;8.80;6.05;;;538.20;2406.40;;;;;;5049689;28;20028;-77
2022/05/22 09:02:48;;;;;;;9.88;5.82;;;538.10;2406.40;;;;;;5049332;28;20025;-79
2022/05/22 09:05:22;;;;;;;9.17;6.20;;;538.10;2406.40;;;;;;5049753;28;20506;-78
2022/05/22 09:07:53;;;;;;;11.27;6.05;;;538.40;2406.40;;;;;;5052650;28;20064;-76
2022/05/22 09:10:22;;;;;;;9.60;5.95;;;538.20;2406.40;;;;;;5052953;28;20040;-79
2022/05/22 09:13:04;;;;;;;10.23;6.72;;;563.50;2432.00;;;;;;5054793;28;20541;-77
2022/05/22 09:15:34;;;;;;;10.65;6.55;;;563.50;2432.00;;;;;;5054751;28;20029;-77
2022/05/22 09:18:04;;;;;;;13.25;6.88;;;564.00;2432.00;;;;;;5054060;28;20036;-79
2022/05/22 09:21:01;;;;;;;18.55;7.63;;;563.90;2432.00;;;;;;5053186;28;20025;-77
2022/05/22 09:23:36;;;;;;;14.10;7.38;;;;;;;;;;5054444;28;20032;-77
2022/05/22 09:26:07;;;;;;;10.60;7.18;;;;;;;;;;5053114;28;20025;-78
2022/05/22 09:28:36;;;;;;;8.27;5.85;;;;;;;;;;5054659;28;20480;-78
2022/05/22 09:31:08;;;;;;;9.30;5.60;;;;;;;;;;5058764;28;20108;-78
2022/05/22 09:33:40;;;;;;;12.50;5.68;;;;;;;;;;5060445;28;20029;-78
2022/05/22 09:36:11;;;;;;;9.10;5.70;;;589.20;2432.00;;;;;;5060547;28;20017;-78
2022/05/22 09:39:30;;;;;;;6.35;4.57;;;589.30;2432.00;;;;;;5055559;28;20036;-78
2022/05/22 09:42:33;;;;;;;7.68;5.25;;;589.10;2432.00;;;;;;5051644;28;20183;-78
2022/05/22 09:45:14;;;;;;;7.18;4.72;;;589.00;2432.00;;;;;;5054515;28;20104;-78
2022/05/22 09:47:51;;;;;;;8.60;4.85;;;589.10;2432.00;;;;;;5054295;28;20021;-78
2022/05/22 09:50:29;;;;;;;6.50;4.45;;;589.00;2432.00;;;;;;5054334;28;20069;-77
2022/05/22 09:52:58;;;;;;;12.45;4.70;;;589.10;2432.00;;;;;;5052800;28;20094;-77
2022/05/22 09:55:26;;;;;;;9.27;5.28;;;589.60;2432.00;;;;;;5052927;28;20060;-78
2022/05/22 09:57:52;;;;;;;6.63;4.97;;;614.60;2432.00;;;;;;5052660;28;20021;-76
2022/05/22 10:00:28;;;;;;;14.38;5.13;;;614.80;2432.00;;;;;;5052482;28;20087;-77
2022/05/22 10:03:03;;;;;;;14.15;4.88;;;614.50;2432.00;;;;;;5052508;28;20423;-77
2022/05/22 10:05:47;;;;;;;16.88;5.00;;;614.40;2432.00;;;;;;5053871;28;20048;-78
2022/05/22 10:09:01;;;;;;;5.57;4.45;;;614.70;2432.00;;;;;;5052191;28;20032;-79
2022/05/22 10:11:56;;;;;;;9.70;5.00;;;615.00;2432.00;;;;;;5005784;28;20049;-78
2022/05/22 10:14:43;;;;;;;5.65;4.50;;;615.30;2432.00;;;;;;5052298;28;20028;-77
2022/05/22 10:17:29;;;;;;;7.10;4.00;;;640.00;2432.00;;;;;;5052599;28;20498;-77
2022/05/22 10:20:20;;;;;;;9.50;4.82;;;615.10;2432.00;;;;;;5050565;28;20563;-78
2022/05/22 10:22:59;;;;;;;7.65;4.95;;;615.10;2432.00;;;;;;5052291;28;20035;-78
2022/05/22 10:25:31;;;;;;;6.95;4.78;;;;;;;;;;5053290;28;20052;-78
2022/05/22 10:28:00;;;;;;;5.95;4.43;;;;;;;;;;5053392;28;20049;-77
2022/05/22 10:30:45;;;;;;;8.10;5.18;;;;;;;;;;5053431;28;20025;-78
2022/05/22 10:33:27;;;;;;;7.85;4.50;;;640.60;2406.40;;;;;;5053373;28;20056;-78
2022/05/22 10:36:03;;;;;;;4.57;3.53;;;640.50;2380.80;;;;;;5053246;28;20021;-79
2022/05/22 10:38:35;;;;;;;14.05;5.60;;;640.80;2201.60;;;;;;5052924;28;20301;-77
2022/05/22 10:44:03;;;;;;;8.30;4.57;;;666.10;2201.60;;;;;;5053308;28;20491;-78
2022/05/22 10:46:29;;;;;;;5.25;4.25;;;665.60;2304.00;;;;;;5051922;28;20025;-80
2022/05/22 10:48:56;;;;;;;8.15;4.53;;;665.60;2304.00;;;;;;5051732;28;20021;-79
2022/05/22 10:51:29;;;;;;;7.53;4.90;;;665.90;2252.80;;;;;;5051835;28;20075;-78
2022/05/22 10:54:02;;;;;;;9.98;5.25;;;666.00;2150.40;;;;;;5053023;28;20108;-78
2022/05/22 10:56:33;;;;;;;8.13;4.72;;;665.90;2329.60;;;;;;5052713;28;20501;-79
2022/05/22 10:59:00;;;;;;;7.85;4.85;;;665.60;2406.40;;;;;;5052975;28;20028;-77
2022/05/22 11:01:29;;;;;;;7.55;4.18;;;665.90;2252.80;;;;;;5034670;28;20022;-78
2022/05/22 11:04:08;;;;;;;7.85;4.88;;;665.70;2252.80;;;;;;5033069;28;20030;-77
2022/05/22 11:06:39;;;;;;;5.35;4.00;;;665.90;2252.80;;;;;;5032909;28;20027;-78
2022/05/22 11:09:07;;;;;;;9.32;4.38;;;666.10;2176.00;;;;;;5042650;28;20025;-79
2022/05/22 11:11:35;;;;;;;10.30;4.57;;;666.10;2227.20;;;;;;5051140;28;20071;-77
2022/05/22 11:14:10;;;;;;;6.97;4.45;;;665.90;2227.20;;;;;;5051767;28;20032;-78
2022/05/22 11:16:37;;;;;;;9.98;4.43;;;665.90;2227.20;;;;;;5052220;28;20032;-77
2022/05/22 11:19:12;;;;;;;6.00;4.20;;;640.90;2278.40;;;;;;5052948;28;20526;-78
2022/05/22 11:22:11;;;;;;;5.72;3.85;;;665.60;2380.80;;;;;;5052693;28;20112;-78
2022/05/22 11:24:40;;;;;;;12.63;4.88;;;665.70;2201.60;;;;;;5052654;28;20025;-78
2022/05/22 11:27:11;;;;;;;7.15;4.53;;;665.70;2227.20;;;;;;5050445;28;20036;-78
2022/05/22 11:29:57;;;;;;;6.03;4.20;;;666.10;2124.80;;;;;;5050583;28;20399;-78
2022/05/22 11:32:39;;;;;;;9.77;5.30;;;666.30;2150.40;;;;;;5050690;28;20040;-79
2022/05/22 11:35:26;;;;;;;7.60;5.20;;;666.50;2124.80;;;;;;5052310;28;20025;-77
2022/05/22 11:38:08;;;;;;;9.18;4.40;;;666.30;2124.80;;;;;;5051680;28;20029;-79
2022/05/22 11:40:55;;;;;;;8.60;5.32;;;666.20;2073.60;;;;;;5050849;28;20029;-78
2022/05/22 11:43:33;;;;;;;6.63;3.85;;;666.40;2048.00;;;;;;5051939;28;20480;-78
2022/05/22 11:46:04;;;;;;;7.75;3.63;;;691.50;1920.00;;;;;;5051854;28;20028;-78
2022/05/22 11:48:49;;;;;;;4.53;3.20;;;692.00;1664.00;;;;;;5051567;28;20045;-80
2022/05/22 11:51:20;;;;;;;4.97;2.58;;;691.90;1638.40;;;;;;5052072;28;20052;-78
2022/05/22 11:54:16;;;;;;;5.88;2.85;;;691.70;1510.40;;;;;;5051925;28;20136;-77
2022/05/22 11:57:20;;;;;;;5.60;3.50;;;691.80;1561.60;;;;;;5050691;28;20384;-79
2022/05/22 11:59:55;;;;;;;5.05;4.03;;;716.80;1689.60;;;;;;5050804;28;20036;-78
2022/05/22 12:02:24;;;;;;;6.63;3.50;;;716.90;1740.80;;;;;;5050670;28;20032;-79
2022/05/22 12:05:24;;;;;;;7.18;6.18;;;716.90;1689.60;;;;;;5051670;28;20140;-76
2022/05/22 12:08:04;;;;;;;4.25;2.85;;;716.80;1561.60;;;;;;5050338;28;20501;-78
2022/05/22 12:10:34;;;;;;;11.35;5.32;;;692.10;1510.40;;;;;;5051800;28;20507;-76
2022/05/22 12:13:03;;;;;;;4.20;2.75;;;717.20;1561.60;;;;;;5051252;28;20021;-76
2022/05/22 12:15:39;;;;;;;9.70;3.20;;;717.20;1484.80;;;;;;5051571;28;20032;-75
2022/05/22 12:18:45;;;;;;;12.60;6.50;;;717.60;1459.20;;;;;;5049824;28;20025;-75
2022/05/22 12:21:11;;;;;;;5.22;3.88;;;717.20;1510.40;;;;;;5051595;28;20028;-75
2022/05/22 12:23:58;;;;;;;13.63;11.70;;;717.20;1536.00;;;;;;5050100;28;20530;-74
2022/05/22 12:26:25;;;;;;;7.82;6.07;;;;;;;;;;5050669;28;20052;-75
2022/05/22 12:28:54;;;;;;;11.70;6.65;;;;;;;;;;5048999;28;20037;-74
2022/05/22 12:31:24;;;;;;;8.27;4.43;;;;;;;;;;5050452;28;20112;-75
2022/05/22 12:33:51;;;;;;;7.93;4.75;;;;;;;;;;5051070;28;20032;-74
2022/05/22 12:36:28;;;;;;;5.57;3.67;;;;;;;;;;5050240;28;20083;-76
2022/05/22 12:39:00;;;;;;;6.80;3.28;;;;;;;;;;5050093;28;20040;-77
2022/05/22 12:41:42;;;;;;;6.03;3.13;;;;;;;;;;5050987;28;20031;-78
2022/05/22 12:44:09;;;;;;;8.18;3.88;;;;;;;;;;5054996;28;20056;-79
2022/05/22 12:46:36;;;;;;;5.80;3.10;;;819.20;1228.80;;;;;;5046581;28;20047;-80
2022/05/22 12:49:27;;;;;;;3.40;2.47;;;793.70;1305.60;;;;;;5047949;28;20079;-76
2022/05/22 12:51:59;;;;;;;8.57;3.08;;;743.00;1459.20;;;;;;5033062;28;20041;-78